Terminal Aerodrome Forecast
Issued by NWS

Home | Current Version | Previous Version | Text Only | Print | Product List | Glossary On
Versions: 1 2 3 4 5 6 7 8 9 10 11 12 13
000
FTUS46 KPDT 230000 AAA
TAFPSC
TAF AMD
KPSC 230006Z 2300/2324 30008KT P6SM -SHRA SCT070 BKN100
     FM231000 VRB06KT P6SM VCSH SCT050 BKN100
     FM231500 17008KT P6SM SCT100 BKN250
     FM232000 18008KT P6SM SCT050 BKN100=

USA.gov is the U.S. government's official web portal to all federal, state and local government web resources and services.